»·PEaware :: USC81 KONO-KBZN

USC81 :: KONO-KBZN

FLIGHT INFORMATION

Flight Status: Arrived
Operator: Unknown
More flights by this operator :: More flights under this callsign
Pilot: Andy P. (22680)
Aircraft: GATES LEARJET LEARJET 35/36
(LJ35)
More flights by this aircraft type
Origin: KONO Ontario Mun
United States
Destination: KBZN Gallatin
United States
More flights between these airports :: More routes between these airports
Route: HIA
File this flight plan on PilotEdge
Remarks:
Altitude:
(Current/Filed)
33,000ft
Speed:
(Current/Filed)
465kts
Departed: 11-Oct-19 03:09 PM
Arrived: 11-Oct-19 03:57 PM
Distance/Time
Traveled:
271nm/0:47
Distance/Time
To Go:
Arrived

Flight Plot

Page will automatically refresh every two minutes.

Flight plan parsing failed; only flown route is shown


Map Options




Map Legend


Flown Route
Filed Route
Departure Airport
Arrival Airport
Navaid (VOR, NDB)
Fix

Horizontal Profiles

Position Reports

Time Latitude Longitude Heading Altitude Ground
Speed
11-Oct-19 14:56 44.021637 -117.011484 351 2195ft 0kts
11-Oct-19 14:57 44.021637 -117.011484 351 2195ft 0kts
11-Oct-19 14:58 44.021637 -117.011484 351 2195ft 0kts
11-Oct-19 14:59 44.021637 -117.011484 351 2195ft 0kts
11-Oct-19 15:00 44.021637 -117.011484 351 2195ft 0kts
11-Oct-19 15:01 44.021637 -117.011484 351 2195ft 0kts
11-Oct-19 15:02 44.021637 -117.011484 351 2195ft 0kts
11-Oct-19 15:03 44.021637 -117.011484 351 2195ft 0kts
11-Oct-19 15:04 44.021637 -117.011484 351 2195ft 0kts
11-Oct-19 15:05 44.022684 -117.013867 339 2195ft 16kts
11-Oct-19 15:06 44.026417 -117.016142 246 2195ft 0kts
11-Oct-19 15:07 44.026383 -117.016250 246 2195ft 4kts
11-Oct-19 15:08 44.012742 -117.009481 159 2239ft 171kts
11-Oct-19 15:09 43.983974 -116.958984 55 5550ft 214kts
11-Oct-19 15:10 44.039419 -116.904856 36 8905ft 267kts
11-Oct-19 15:11 44.097853 -116.828923 58 12278ft 308kts
11-Oct-19 15:12 44.136668 -116.719004 60 15617ft 330kts
11-Oct-19 15:13 44.185395 -116.608877 56 18633ft 341kts
11-Oct-19 15:14 44.231777 -116.485839 59 20506ft 373kts
11-Oct-19 15:15 44.284907 -116.360812 55 22753ft 378kts
11-Oct-19 15:16 44.334126 -116.227961 57 24875ft 375kts
11-Oct-19 15:17 44.387840 -116.104672 54 26911ft 374kts
11-Oct-19 15:18 44.440356 -115.977525 55 28522ft 382kts
11-Oct-19 15:19 44.492834 -115.846584 55 30057ft 385kts
11-Oct-19 15:20 44.544849 -115.715582 55 31734ft 383kts
11-Oct-19 15:21 44.596242 -115.585473 55 33157ft 383kts
11-Oct-19 15:22 44.649923 -115.449078 56 33319ft 415kts
11-Oct-19 15:23 44.707581 -115.301618 56 33320ft 443kts
11-Oct-19 15:24 44.768149 -115.145831 57 33325ft 463kts
11-Oct-19 15:25 44.830129 -114.985473 57 33324ft 468kts
11-Oct-19 15:26 44.892325 -114.823662 57 33324ft 469kts
11-Oct-19 15:27 44.954158 -114.661874 57 33346ft 469kts
11-Oct-19 15:28 45.016030 -114.499029 57 33346ft 470kts
11-Oct-19 15:29 45.077475 -114.336345 58 33353ft 469kts
11-Oct-19 15:30 45.138755 -114.173151 58 33365ft 469kts
11-Oct-19 15:31 45.199830 -114.009519 58 33366ft 469kts
11-Oct-19 15:32 45.260085 -113.847101 58 32176ft 465kts
11-Oct-19 15:33 45.320918 -113.682207 59 30336ft 475kts
11-Oct-19 15:34 45.381791 -113.516101 59 28476ft 471kts
11-Oct-19 15:35 45.441876 -113.351188 59 26655ft 470kts
11-Oct-19 15:36 45.501608 -113.186233 59 24878ft 469kts
11-Oct-19 15:37 45.561231 -113.020564 59 23094ft 468kts
11-Oct-19 15:38 45.619059 -112.858836 59 21323ft 447kts
11-Oct-19 15:39 45.674682 -112.702431 59 19624ft 437kts
11-Oct-19 15:40 45.729511 -112.547432 59 17925ft 435kts
11-Oct-19 15:41 45.780856 -112.401181 59 16316ft 392kts
11-Oct-19 15:42 45.828477 -112.265100 59 14852ft 379kts
11-Oct-19 15:43 45.868101 -112.125712 75 13427ft 382kts
11-Oct-19 15:44 45.889057 -111.978508 76 11962ft 348kts
11-Oct-19 15:45 45.906520 -111.855340 77 10755ft 290kts
11-Oct-19 15:46 45.921993 -111.745267 78 9681ft 279kts
11-Oct-19 15:47 45.936891 -111.638545 79 9072ft 262kts
11-Oct-19 15:48 45.949766 -111.541796 83 8627ft 253kts
11-Oct-19 15:49 45.953374 -111.449996 88 8191ft 211kts
11-Oct-19 15:50 45.937184 -111.375133 139 7783ft 200kts
11-Oct-19 15:51 45.898735 -111.321077 137 7284ft 180kts
11-Oct-19 15:52 45.866336 -111.275579 137 6257ft 162kts
11-Oct-19 15:53 45.834578 -111.231217 138 5881ft 159kts
11-Oct-19 15:54 45.803224 -111.187548 135 4852ft 150kts
11-Oct-19 15:55 45.778380 -111.152931 135 4474ft 51kts
11-Oct-19 15:56 45.773504 -111.150324 134 4474ft 14kts
11-Oct-19 15:57 45.769805 -111.145711 174 4474ft 16kts
11-Oct-19 15:58 45.767205 -111.144503 234 4474ft 8kts
11-Oct-19 15:59 45.767173 -111.144453 18 4474ft 0kts

Navigation Log

Ident Type
Flight plan parsing failed, navigation log unavailable